Terminal Aerodrome Forecast
Issued by NWS Des Moines, IA

Home | Current Version | Previous Version | Text Only | Print | Product List | Glossary On
Versions: 1 2 3 4 5 6 7 8 9 10 11 12 13 14 15 16 17 18 19 20 21 22 23 24 25 26 27 28 29 30 31 32 33 34
000
FTUS43 KDMX 232339
TAFDSM
TAF
KDSM 232339Z 2400/2424 04016G26KT P6SM -RA SCT009 OVC015
     FM240200 04016G26KT 2SM RA VCTS OVC007CB
     FM240900 02015G25KT 5SM -RA OVC007
     FM241400 36020G30KT 3SM -RASN OVC008
     FM241700 34022G32KT 1SM -SN OVC006=

USA.gov is the U.S. government's official web portal to all federal, state and local government web resources and services.